createdAt,value
2023-03-06T00:00:12.155Z,100623.97
2023-03-06T00:02:39.684Z,100626.75
2023-03-06T00:05:07.515Z,100624.31
2023-03-06T00:07:35.058Z,100619.94
2023-03-06T00:10:02.716Z,100614.00
2023-03-06T00:12:31.517Z,100613.41
2023-03-06T00:14:58.990Z,100617.84
2023-03-06T00:17:26.502Z,100615.31
2023-03-06T00:19:53.988Z,100615.41
2023-03-06T00:22:21.438Z,100619.03
2023-03-06T00:24:48.912Z,100608.72
2023-03-06T00:27:16.370Z,100597.63
2023-03-06T00:29:45.582Z,100599.47
2023-03-06T00:32:13.066Z,100602.22
2023-03-06T00:34:40.607Z,100597.94
2023-03-06T00:37:08.170Z,100593.72
2023-03-06T00:39:35.704Z,100592.94
2023-03-06T00:42:03.211Z,100596.53
2023-03-06T00:44:31.617Z,100593.31
2023-03-06T00:47:00.555Z,100586.41
2023-03-06T00:49:28.111Z,100589.09
2023-03-06T00:51:55.629Z,100594.41
2023-03-06T00:54:23.129Z,100583.22
2023-03-06T00:56:50.641Z,100584.97
2023-03-06T00:59:18.142Z,100583.34
2023-03-06T01:01:45.702Z,100582.44
2023-03-06T01:04:14.584Z,100579.81
2023-03-06T01:06:42.133Z,100561.56
2023-03-06T01:09:09.670Z,100560.63
2023-03-06T01:11:37.162Z,100558.03
2023-03-06T01:14:04.634Z,100551.91
2023-03-06T01:16:32.329Z,100549.38
2023-03-06T01:18:59.909Z,100543.38
2023-03-06T01:21:28.821Z,100541.88
2023-03-06T01:23:56.258Z,100536.72
2023-03-06T01:26:23.791Z,100531.59
2023-03-06T01:28:51.266Z,100535.97
2023-03-06T01:31:18.737Z,100530.81
2023-03-06T01:33:46.184Z,100522.25
2023-03-06T01:36:13.627Z,100517.97
2023-03-06T01:38:42.584Z,100518.81
2023-03-06T01:41:15.502Z,100516.31
2023-03-06T01:43:44.223Z,100519.84
2023-03-06T01:46:19.428Z,100522.53
2023-03-06T01:48:46.882Z,100521.72
2023-03-06T01:51:14.304Z,100514.81
2023-03-06T01:53:43.284Z,100519.22
2023-03-06T01:56:10.884Z,100514.94
2023-03-06T01:58:38.331Z,100506.28
2023-03-06T02:01:05.962Z,100516.78
2023-03-06T02:03:33.442Z,100511.66
2023-03-06T02:06:00.892Z,100509.13
2023-03-06T02:08:28.344Z,100506.53
2023-03-06T02:10:59.636Z,100497.00
2023-03-06T02:13:27.130Z,100499.59
2023-03-06T02:15:54.656Z,100497.91
2023-03-06T02:18:22.175Z,100502.28
2023-03-06T02:20:50.491Z,100497.00
2023-03-06T02:23:18.649Z,100497.91
2023-03-06T02:25:48.233Z,100489.19
2023-03-06T02:28:16.804Z,100482.28
2023-03-06T02:30:45.233Z,100488.34
2023-03-06T02:33:12.882Z,100474.56
2023-03-06T02:35:40.695Z,100466.81
2023-03-06T02:38:09.704Z,100468.66
2023-03-06T02:40:37.994Z,100473.03
2023-03-06T02:43:06.917Z,100466.19
2023-03-06T02:45:35.262Z,100465.44
2023-03-06T02:48:03.070Z,100468.97
2023-03-06T02:50:30.631Z,100461.16
2023-03-06T02:52:58.171Z,100469.81
2023-03-06T02:55:25.793Z,100462.06
2023-03-06T02:57:53.295Z,100460.41
2023-03-06T03:00:22.502Z,100455.19
2023-03-06T03:02:50.006Z,100453.47
2023-03-06T03:05:17.477Z,100448.34
2023-03-06T03:07:45.203Z,100447.50
2023-03-06T03:10:13.116Z,100444.91
2023-03-06T03:12:40.843Z,100447.59
2023-03-06T03:15:09.021Z,100440.59
2023-03-06T03:17:38.045Z,100445.91
2023-03-06T03:20:05.984Z,100440.78
2023-03-06T03:22:33.522Z,100437.25
2023-03-06T03:25:01.019Z,100433.78
2023-03-06T03:27:28.583Z,100426.91
2023-03-06T03:29:59.787Z,100421.69
2023-03-06T03:32:27.674Z,100420.78
2023-03-06T03:34:57.240Z,100420.78
2023-03-06T03:37:24.779Z,100412.13
2023-03-06T03:39:52.362Z,100404.28
2023-03-06T03:42:19.884Z,100406.06
2023-03-06T03:44:47.496Z,100397.41
2023-03-06T03:47:15.069Z,100402.75
2023-03-06T03:49:42.529Z,100395.09
2023-03-06T03:52:11.393Z,100389.91
2023-03-06T03:54:38.943Z,100386.38
2023-03-06T03:57:06.633Z,100385.53
2023-03-06T03:59:34.120Z,100378.63
2023-03-06T04:02:04.704Z,100378.69
2023-03-06T04:04:32.343Z,100376.09
2023-03-06T04:07:00.581Z,100376.09
2023-03-06T04:09:29.486Z,100376.03
2023-03-06T04:11:57.184Z,100368.34
2023-03-06T04:14:24.680Z,100370.03
2023-03-06T04:16:52.282Z,100370.13
2023-03-06T04:19:19.842Z,100370.13
2023-03-06T04:21:47.362Z,100369.34
2023-03-06T04:24:14.907Z,100364.16
2023-03-06T04:26:43.828Z,100360.63
2023-03-06T04:29:11.405Z,100364.16
2023-03-06T04:31:39.013Z,100366.75
2023-03-06T04:34:06.556Z,100358.94
2023-03-06T04:36:35.095Z,100364.16
2023-03-06T04:39:02.602Z,100360.63
2023-03-06T04:41:30.704Z,100352.06
2023-03-06T04:43:59.751Z,100351.13
2023-03-06T04:46:27.375Z,100347.59
2023-03-06T04:48:54.883Z,100339.78
2023-03-06T04:51:22.393Z,100345.00
2023-03-06T04:53:50.224Z,100344.06
2023-03-06T04:56:17.758Z,100337.94
2023-03-06T04:58:45.289Z,100339.59
2023-03-06T05:01:14.185Z,100331.78
2023-03-06T05:03:41.730Z,100331.75
2023-03-06T05:06:09.490Z,100332.59
2023-03-06T05:08:37.036Z,100328.22
2023-03-06T05:11:04.536Z,100331.66
2023-03-06T05:13:32.138Z,100329.97
2023-03-06T05:16:02.500Z,100329.97
2023-03-06T05:18:33.550Z,100323.84
2023-03-06T05:21:01.034Z,100325.53
2023-03-06T05:23:28.533Z,100322.00
2023-03-06T05:25:55.988Z,100323.66
2023-03-06T05:28:23.650Z,100318.47
2023-03-06T05:30:51.273Z,100327.19
2023-03-06T05:33:18.764Z,100318.53
2023-03-06T05:35:48.163Z,100326.38
2023-03-06T05:38:15.711Z,100322.06
2023-03-06T05:40:43.828Z,100334.25
2023-03-06T05:43:11.864Z,100335.28
2023-03-06T05:45:39.672Z,100330.19
2023-03-06T05:48:07.413Z,100324.31
2023-03-06T05:50:34.908Z,100325.25
2023-03-06T05:53:03.887Z,100318.41
2023-03-06T05:55:31.419Z,100316.91
2023-03-06T05:57:59.032Z,100319.56
2023-03-06T06:00:26.661Z,100313.59
2023-03-06T06:02:54.397Z,100317.97
2023-03-06T06:05:21.937Z,100317.22
2023-03-06T06:07:49.590Z,100319.91
2023-03-06T06:10:18.745Z,100318.22
2023-03-06T06:12:46.260Z,100307.00
2023-03-06T06:15:15.407Z,100306.16
2023-03-06T06:17:43.010Z,100314.81
2023-03-06T06:20:11.138Z,100313.91
2023-03-06T06:22:38.889Z,100312.16
2023-03-06T06:25:06.958Z,100313.91
2023-03-06T06:27:35.898Z,100319.09
2023-03-06T06:30:03.454Z,100315.53
2023-03-06T06:32:31.017Z,100312.94
2023-03-06T06:34:58.571Z,100318.97
2023-03-06T06:37:26.132Z,100319.72
2023-03-06T06:39:53.606Z,100317.88
2023-03-06T06:42:31.566Z,100316.97
2023-03-06T06:45:03.177Z,100320.44
2023-03-06T06:47:30.755Z,100315.13
2023-03-06T06:49:58.306Z,100317.66
2023-03-06T06:52:25.958Z,100318.41
2023-03-06T06:54:53.735Z,100316.66
2023-03-06T06:57:21.706Z,100314.03
2023-03-06T06:59:50.712Z,100319.25
2023-03-06T07:02:21.335Z,100323.47
2023-03-06T07:05:02.411Z,100326.00
2023-03-06T07:07:31.555Z,100325.06
2023-03-06T07:09:59.168Z,100321.63
2023-03-06T07:12:26.659Z,100326.75
2023-03-06T07:14:54.235Z,100323.22
2023-03-06T07:17:23.093Z,100327.50
2023-03-06T07:19:50.793Z,100327.38
2023-03-06T07:22:18.268Z,100324.59
2023-03-06T07:24:45.803Z,100331.41
2023-03-06T07:27:13.326Z,100326.88
2023-03-06T07:29:40.824Z,100323.19
2023-03-06T07:32:08.398Z,100326.41
2023-03-06T07:34:37.763Z,100328.09
2023-03-06T07:37:05.362Z,100324.41
2023-03-06T07:39:32.931Z,100327.00
2023-03-06T07:42:00.510Z,100333.91
2023-03-06T07:44:28.122Z,100335.66
2023-03-06T07:46:55.727Z,100335.66
2023-03-06T07:49:23.186Z,100340.03
2023-03-06T07:51:54.002Z,100336.50
2023-03-06T07:54:21.512Z,100338.38
2023-03-06T07:56:50.867Z,100337.59
2023-03-06T07:59:18.445Z,100342.03
2023-03-06T08:01:46.003Z,100338.50
2023-03-06T08:04:13.494Z,100339.44
2023-03-06T08:06:41.095Z,100340.34
2023-03-06T08:09:09.942Z,100343.81
2023-03-06T08:11:37.412Z,100345.56
2023-03-06T08:14:04.990Z,100351.63
2023-03-06T08:16:32.620Z,100355.81
2023-03-06T08:19:00.156Z,100353.06
2023-03-06T08:21:28.371Z,100360.81
2023-03-06T08:23:56.086Z,100350.28
2023-03-06T08:26:25.520Z,100357.19
2023-03-06T08:28:53.408Z,100363.19
2023-03-06T08:31:24.388Z,100357.88
2023-03-06T08:33:51.848Z,100362.09
2023-03-06T08:36:19.312Z,100363.75
2023-03-06T08:38:46.794Z,100357.47
2023-03-06T08:41:14.283Z,100361.69
2023-03-06T08:43:43.185Z,100358.94
2023-03-06T08:46:11.054Z,100361.44
2023-03-06T08:48:38.621Z,100355.22
2023-03-06T08:51:06.318Z,100356.66
2023-03-06T08:53:43.096Z,100363.25
2023-03-06T08:56:15.876Z,100365.34
2023-03-06T08:58:44.770Z,100369.31
2023-03-06T09:01:14.119Z,100369.00
2023-03-06T09:03:41.740Z,100373.59
2023-03-06T09:06:09.307Z,100367.13
2023-03-06T09:08:36.780Z,100377.47
2023-03-06T09:11:04.314Z,100366.94
2023-03-06T09:13:31.767Z,100358.28
2023-03-06T09:16:00.598Z,100365.34
2023-03-06T09:18:29.357Z,100363.00
2023-03-06T09:20:56.840Z,100358.88
2023-03-06T09:23:24.370Z,100359.06
2023-03-06T09:25:53.872Z,100368.47
2023-03-06T09:28:21.413Z,100360.47
2023-03-06T09:30:48.877Z,100362.66
2023-03-06T09:33:17.934Z,100355.94
2023-03-06T09:35:45.867Z,100357.50
2023-03-06T09:38:13.368Z,100354.94
2023-03-06T09:40:43.658Z,100358.69
2023-03-06T09:43:12.231Z,100361.72
2023-03-06T09:45:39.845Z,100360.34
2023-03-06T09:48:07.571Z,100364.56
2023-03-06T09:50:38.382Z,100359.97
2023-03-06T09:53:15.182Z,100363.44
2023-03-06T09:55:44.140Z,100355.78
2023-03-06T09:58:13.089Z,100363.88
2023-03-06T10:00:41.877Z,100364.16
2023-03-06T10:03:15.413Z,100365.09
2023-03-06T10:05:45.027Z,100362.47
2023-03-06T10:08:17.929Z,100363.97
2023-03-06T10:10:46.035Z,100357.66
2023-03-06T10:13:14.793Z,100359.72
2023-03-06T10:15:42.595Z,100360.75
2023-03-06T10:18:10.509Z,100360.13
2023-03-06T10:20:40.435Z,100365.75
2023-03-06T10:23:15.281Z,100358.75
2023-03-06T10:25:44.562Z,100356.03
2023-03-06T10:28:15.194Z,100356.59
2023-03-06T10:30:44.348Z,100359.78
2023-03-06T10:33:16.843Z,100356.72
2023-03-06T10:35:47.130Z,100344.84
2023-03-06T10:38:17.172Z,100348.00
2023-03-06T10:40:46.003Z,100348.75
2023-03-06T10:43:13.510Z,100351.91
2023-03-06T10:45:49.406Z,100352.47
2023-03-06T10:48:19.451Z,100352.66
2023-03-06T10:50:47.163Z,100359.22
2023-03-06T10:53:21.809Z,100365.75
2023-03-06T10:55:53.135Z,100366.78
2023-03-06T10:58:21.006Z,100362.22
2023-03-06T11:00:48.481Z,100360.53
2023-03-06T11:03:19.881Z,100372.00
2023-03-06T11:06:02.524Z,100361.38
2023-03-06T11:08:31.761Z,100370.44
2023-03-06T11:11:00.348Z,100368.19
2023-03-06T11:13:28.812Z,100368.75
2023-03-06T11:15:57.383Z,100364.03
2023-03-06T11:18:31.040Z,100362.94
2023-03-06T11:20:58.514Z,100366.19
2023-03-06T11:23:29.441Z,100365.06
2023-03-06T11:25:58.596Z,100360.47
2023-03-06T11:28:27.295Z,100358.59
2023-03-06T11:30:55.692Z,100361.75
2023-03-06T11:33:26.356Z,100356.25
2023-03-06T11:35:55.709Z,100358.41
2023-03-06T11:38:23.775Z,100347.56
2023-03-06T11:40:52.856Z,100349.31
2023-03-06T11:43:23.288Z,100345.31
2023-03-06T11:45:52.705Z,100342.84
2023-03-06T11:48:22.341Z,100345.88
2023-03-06T11:50:50.494Z,100332.88
2023-03-06T11:53:18.570Z,100336.16
2023-03-06T11:55:46.990Z,100335.78
2023-03-06T11:58:22.277Z,100338.53
2023-03-06T12:00:51.549Z,100331.78
2023-03-06T12:03:25.196Z,100334.44
2023-03-06T12:05:53.560Z,100340.97
2023-03-06T12:08:25.978Z,100328.59
2023-03-06T12:10:53.807Z,100323.75
2023-03-06T12:16:10.424Z,100318.94
2023-03-06T12:18:40.570Z,100327.81
2023-03-06T12:21:08.613Z,100322.06
2023-03-06T12:23:40.540Z,100328.41
2023-03-06T12:26:10.471Z,100327.88
2023-03-06T12:28:41.636Z,100328.28
2023-03-06T12:31:26.450Z,100325.13
2023-03-06T12:33:58.470Z,100319.28
2023-03-06T12:36:29.625Z,100316.88
2023-03-06T12:39:00.342Z,100316.22
2023-03-06T12:41:42.743Z,100316.22
2023-03-06T12:44:16.862Z,100313.53
2023-03-06T12:46:46.291Z,100314.25
2023-03-06T12:49:31.960Z,100307.88
2023-03-06T12:52:00.287Z,100308.19
2023-03-06T12:54:28.818Z,100303.91
2023-03-06T12:56:56.588Z,100304.06
2023-03-06T12:59:37.754Z,100309.09
2023-03-06T13:02:20.620Z,100307.41
2023-03-06T13:04:49.441Z,100304.91
2023-03-06T13:07:20.035Z,100297.66
2023-03-06T13:09:55.516Z,100301.78
2023-03-06T13:12:27.259Z,100291.72
2023-03-06T13:14:56.078Z,100295.63
2023-03-06T13:17:34.806Z,100294.47
2023-03-06T13:20:17.166Z,100287.25
2023-03-06T13:22:44.770Z,100281.06
2023-03-06T13:25:30.732Z,100284.50
2023-03-06T13:28:03.150Z,100276.94
2023-03-06T13:30:44.147Z,100276.00
2023-03-06T13:33:36.283Z,100265.34
2023-03-06T13:36:18.623Z,100262.38
2023-03-06T13:38:58.111Z,100259.25
2023-03-06T13:41:39.027Z,100252.75
2023-03-06T13:44:21.571Z,100248.97
2023-03-06T13:46:56.499Z,100242.47
2023-03-06T13:49:24.264Z,100243.72
2023-03-06T13:51:58.983Z,100236.38
2023-03-06T13:54:29.626Z,100242.03
2023-03-06T13:57:11.861Z,100230.47
2023-03-06T14:00:08.699Z,100234.47
2023-03-06T14:02:52.198Z,100225.00
2023-03-06T14:05:19.705Z,100221.81
2023-03-06T14:07:47.415Z,100221.38
2023-03-06T14:10:21.860Z,100216.66
2023-03-06T14:13:10.317Z,100207.84
2023-03-06T14:15:41.543Z,100207.84
2023-03-06T14:18:13.991Z,100198.28
2023-03-06T14:20:43.021Z,100206.47
2023-03-06T14:23:17.610Z,100198.72
2023-03-06T14:25:46.643Z,100197.66
2023-03-06T14:28:22.508Z,100197.66
2023-03-06T14:30:50.607Z,100188.94
2023-03-06T14:33:21.775Z,100185.59
2023-03-06T14:35:51.851Z,100186.44
2023-03-06T14:38:19.396Z,100186.66
2023-03-06T14:40:48.264Z,100182.81
2023-03-06T14:43:22.330Z,100177.88
2023-03-06T14:45:53.715Z,100175.38
2023-03-06T14:48:21.264Z,100173.78
2023-03-06T14:50:49.547Z,100167.94
2023-03-06T14:53:18.054Z,100167.09
2023-03-06T14:55:50.229Z,100161.88
2023-03-06T14:58:18.312Z,100166.88
2023-03-06T15:00:46.166Z,100157.34
2023-03-06T15:03:15.298Z,100156.63
2023-03-06T15:05:43.806Z,100148.75
2023-03-06T15:08:11.375Z,100150.19
2023-03-06T15:10:39.001Z,100142.84
2023-03-06T15:13:11.613Z,100133.69
2023-03-06T15:15:39.227Z,100132.63
2023-03-06T15:18:21.592Z,100130.00
2023-03-06T15:20:49.901Z,100130.94
2023-03-06T15:23:18.378Z,100118.06
2023-03-06T15:25:53.202Z,100117.31
2023-03-06T15:28:33.763Z,100108.22
2023-03-06T15:31:02.386Z,100112.16
2023-03-06T15:33:29.889Z,100113.41
2023-03-06T15:35:58.388Z,100105.16
2023-03-06T15:38:27.301Z,100109.03
2023-03-06T15:40:55.324Z,100097.13
2023-03-06T15:43:22.875Z,100097.31
2023-03-06T15:45:51.819Z,100095.88
2023-03-06T15:48:19.416Z,100089.09
2023-03-06T15:50:46.954Z,100080.81
2023-03-06T15:53:14.547Z,100075.78
2023-03-06T15:55:42.042Z,100077.78
2023-03-06T15:58:10.300Z,100079.78
2023-03-06T16:00:38.392Z,100073.94
2023-03-06T16:03:07.344Z,100068.69
2023-03-06T16:05:34.994Z,100060.94
2023-03-06T16:08:02.591Z,100066.28
2023-03-06T16:10:30.580Z,100059.47
2023-03-06T16:12:58.521Z,100056.84
2023-03-06T16:15:28.995Z,100057.81
2023-03-06T16:17:56.675Z,100059.69
2023-03-06T16:20:26.523Z,100051.13
2023-03-06T16:22:54.879Z,100047.03
2023-03-06T16:25:22.847Z,100044.63
2023-03-06T16:27:50.951Z,100048.41
2023-03-06T16:30:18.882Z,100045.25
2023-03-06T16:32:46.549Z,100043.81
2023-03-06T16:35:14.405Z,100040.66
2023-03-06T16:37:43.435Z,100045.06
2023-03-06T16:40:14.100Z,100053.03
2023-03-06T16:42:41.531Z,100057.63
2023-03-06T16:45:09.688Z,100056.19
2023-03-06T16:47:37.504Z,100058.16
2023-03-06T16:50:05.378Z,100051.59
2023-03-06T16:52:32.935Z,100057.25
2023-03-06T16:55:01.797Z,100054.91
2023-03-06T16:57:35.501Z,100057.03
2023-03-06T17:00:03.022Z,100048.53
2023-03-06T17:02:30.581Z,100045.28
2023-03-06T17:04:58.199Z,100044.75
2023-03-06T17:07:25.665Z,100049.44
2023-03-06T17:09:53.153Z,100046.44
2023-03-06T17:12:22.116Z,100041.50
2023-03-06T17:14:49.590Z,100039.09
2023-03-06T17:17:17.212Z,100043.69
2023-03-06T17:19:47.305Z,100041.28
2023-03-06T17:22:15.772Z,100036.25
2023-03-06T17:24:43.218Z,100039.06
2023-03-06T17:27:10.710Z,100036.66
2023-03-06T17:29:39.640Z,100040.31
2023-03-06T17:32:07.413Z,100038.84
2023-03-06T17:34:35.020Z,100034.75
2023-03-06T17:37:03.013Z,100030.56
2023-03-06T17:39:32.508Z,100036.81
2023-03-06T17:42:00.323Z,100036.09
2023-03-06T17:44:27.827Z,100032.03
2023-03-06T17:46:56.784Z,100025.19
2023-03-06T17:49:25.161Z,100022.81
2023-03-06T17:51:52.662Z,100022.06
2023-03-06T17:54:20.405Z,100022.38
2023-03-06T17:56:48.002Z,100014.81
2023-03-06T17:59:15.488Z,100021.81
2023-03-06T18:01:44.896Z,100010.72
2023-03-06T18:04:13.806Z,100006.44
2023-03-06T18:06:41.341Z,100006.44
2023-03-06T18:09:10.010Z,100002.91
2023-03-06T18:11:38.075Z,100003.00
2023-03-06T18:14:05.720Z,99997.97
2023-03-06T18:16:38.435Z,99993.66
2023-03-06T18:19:06.000Z,99990.31
2023-03-06T18:21:34.852Z,99983.53
2023-03-06T18:24:02.385Z,99981.00
2023-03-06T18:26:30.183Z,99975.88
2023-03-06T18:28:58.629Z,99976.09
2023-03-06T18:31:27.582Z,99964.16
2023-03-06T18:33:55.668Z,99966.13
2023-03-06T18:36:23.285Z,99958.47
2023-03-06T18:38:52.239Z,99952.41
2023-03-06T18:41:20.348Z,99946.34
2023-03-06T18:43:51.878Z,99953.69
2023-03-06T18:46:19.438Z,99946.75
2023-03-06T18:48:47.164Z,99951.13
2023-03-06T18:51:15.004Z,99940.69
2023-03-06T18:53:42.555Z,99938.00
2023-03-06T18:56:15.093Z,99938.00
2023-03-06T18:58:42.554Z,99935.47
2023-03-06T19:01:10.305Z,99924.19
2023-03-06T19:03:37.779Z,99924.09
2023-03-06T19:06:05.737Z,99923.25
2023-03-06T19:08:33.268Z,99917.28
2023-03-06T19:11:02.624Z,99913.94
2023-03-06T19:13:31.683Z,99909.78
2023-03-06T19:15:59.327Z,99908.19
2023-03-06T19:18:27.201Z,99897.00
2023-03-06T19:20:54.843Z,99898.88
2023-03-06T19:23:22.485Z,99892.91
2023-03-06T19:25:56.490Z,99893.13
2023-03-06T19:28:23.967Z,99893.41
2023-03-06T19:30:52.911Z,99882.34
2023-03-06T19:33:20.539Z,99878.16
2023-03-06T19:35:48.203Z,99879.00
2023-03-06T19:38:16.118Z,99871.16
2023-03-06T19:40:49.111Z,99861.66
2023-03-06T19:43:16.676Z,99856.44
2023-03-06T19:45:44.743Z,99857.34
2023-03-06T19:48:13.692Z,99844.50
2023-03-06T19:50:41.382Z,99848.06
2023-03-06T19:53:10.957Z,99842.00
2023-03-06T19:55:38.693Z,99842.00
2023-03-06T19:58:06.209Z,99834.28
2023-03-06T20:00:34.447Z,99839.50
2023-03-06T20:03:01.973Z,99833.44
2023-03-06T20:05:30.854Z,99829.06
2023-03-06T20:08:01.259Z,99825.50
2023-03-06T20:10:28.848Z,99819.63
2023-03-06T20:12:56.372Z,99819.63
2023-03-06T20:15:23.930Z,99810.13
2023-03-06T20:17:51.512Z,99805.84
2023-03-06T20:20:19.055Z,99804.19
2023-03-06T20:22:47.947Z,99803.34
2023-03-06T20:25:15.431Z,99786.94
2023-03-06T20:27:42.956Z,99785.34
2023-03-06T20:30:10.940Z,99791.41
2023-03-06T20:32:38.843Z,99791.41
2023-03-06T20:35:06.891Z,99786.19
2023-03-06T20:37:34.365Z,99774.09
2023-03-06T20:40:03.594Z,99774.28
2023-03-06T20:42:31.127Z,99764.88
2023-03-06T20:44:58.595Z,99766.88
2023-03-06T20:47:26.088Z,99762.59
2023-03-06T20:49:53.654Z,99759.13
2023-03-06T20:52:21.115Z,99762.75
2023-03-06T20:54:48.612Z,99747.31
2023-03-06T20:57:17.482Z,99744.00
2023-03-06T20:59:45.077Z,99744.81
2023-03-06T21:02:14.879Z,99733.72
2023-03-06T21:04:42.413Z,99737.28
2023-03-06T21:07:09.967Z,99724.34
2023-03-06T21:09:39.557Z,99729.66
2023-03-06T21:12:07.364Z,99728.84
2023-03-06T21:14:36.212Z,99721.13
2023-03-06T21:17:03.692Z,99722.06
2023-03-06T21:19:31.148Z,99709.09
2023-03-06T21:21:58.654Z,99706.69
2023-03-06T21:24:26.151Z,99708.47
2023-03-06T21:26:53.681Z,99694.47
2023-03-06T21:29:21.303Z,99695.41
2023-03-06T21:31:50.398Z,99692.81
2023-03-06T21:34:17.882Z,99684.16
2023-03-06T21:36:45.323Z,99686.66
2023-03-06T21:39:13.896Z,99679.03
2023-03-06T21:41:41.391Z,99668.91
2023-03-06T21:44:08.876Z,99662.13
2023-03-06T21:46:36.370Z,99669.19
2023-03-06T21:49:05.394Z,99660.63
2023-03-06T21:51:32.897Z,99655.41
2023-03-06T21:54:00.453Z,99654.47
2023-03-06T21:56:28.500Z,99650.22
2023-03-06T21:58:58.200Z,99652.81
2023-03-06T22:01:26.433Z,99640.00
2023-03-06T22:03:54.217Z,99653.13
2023-03-06T22:06:23.645Z,99639.44
2023-03-06T22:08:51.257Z,99634.44
2023-03-06T22:11:19.223Z,99629.31
2023-03-06T22:13:47.927Z,99624.09
2023-03-06T22:16:15.726Z,99622.34
2023-03-06T22:18:45.022Z,99611.16
2023-03-06T22:21:13.159Z,99605.94
2023-03-06T22:23:42.095Z,99593.00
2023-03-06T22:26:10.430Z,99597.28
2023-03-06T22:28:37.884Z,99595.50
2023-03-06T22:31:06.364Z,99592.91
2023-03-06T22:33:33.911Z,99598.97
2023-03-06T22:36:05.256Z,99578.22
2023-03-06T22:38:33.030Z,99579.16
2023-03-06T22:41:01.910Z,99573.09
2023-03-06T22:43:29.455Z,99562.78
2023-03-06T22:46:01.189Z,99556.63
2023-03-06T22:48:28.781Z,99559.22
2023-03-06T22:50:56.380Z,99547.97
2023-03-06T22:53:23.946Z,99548.81
2023-03-06T22:55:51.468Z,99550.47
2023-03-06T22:58:20.381Z,99551.31
2023-03-06T23:00:47.893Z,99543.38
2023-03-06T23:03:15.497Z,99554.44
2023-03-06T23:05:43.101Z,99542.97
2023-03-06T23:08:10.648Z,99538.41
2023-03-06T23:10:38.695Z,99534.75
2023-03-06T23:13:06.238Z,99533.78
2023-03-06T23:15:36.083Z,99527.53
2023-03-06T23:18:03.577Z,99531.59
2023-03-06T23:20:31.128Z,99529.84
2023-03-06T23:22:58.614Z,99525.34
2023-03-06T23:25:26.122Z,99516.56
2023-03-06T23:27:53.694Z,99519.94
2023-03-06T23:30:21.229Z,99520.66
2023-03-06T23:32:50.048Z,99513.56
2023-03-06T23:35:17.920Z,99517.81
2023-03-06T23:37:45.417Z,99512.50
2023-03-06T23:40:14.939Z,99510.63
2023-03-06T23:42:42.461Z,99511.47
2023-03-06T23:45:10.692Z,99507.91
2023-03-06T23:47:38.183Z,99518.13
2023-03-06T23:50:07.569Z,99518.88
2023-03-06T23:52:35.106Z,99514.28
2023-03-06T23:55:02.562Z,99514.16
2023-03-06T23:57:30.359Z,99519.19
2023-03-06T23:59:57.885Z,99518.97
